sensor_id;sensor_type;location;lat;lon;timestamp;temperature;humidity
50586;DHT22;36542;51.700;8.846;2022-12-24T00:00:18;9.30;99.90
50586;DHT22;36542;51.700;8.846;2022-12-24T00:02:43;9.40;99.90
50586;DHT22;36542;51.700;8.846;2022-12-24T00:05:09;9.30;99.90
50586;DHT22;36542;51.700;8.846;2022-12-24T00:07:35;9.30;99.90
50586;DHT22;36542;51.700;8.846;2022-12-24T00:10:01;9.30;99.90
50586;DHT22;36542;51.700;8.846;2022-12-24T00:12:26;9.20;99.90
50586;DHT22;36542;51.700;8.846;2022-12-24T00:14:51;9.20;99.90
50586;DHT22;36542;51.700;8.846;2022-12-24T00:17:17;9.10;99.90
50586;DHT22;36542;51.700;8.846;2022-12-24T00:19:42;9.10;99.90
50586;DHT22;36542;51.700;8.846;2022-12-24T00:22:08;9.10;99.90
50586;DHT22;36542;51.700;8.846;2022-12-24T00:24:33;9.10;99.90
50586;DHT22;36542;51.700;8.846;2022-12-24T00:26:59;9.10;99.90
50586;DHT22;36542;51.700;8.846;2022-12-24T00:29:24;9.10;99.90
50586;DHT22;36542;51.700;8.846;2022-12-24T00:31:50;9.10;99.90
50586;DHT22;36542;51.700;8.846;2022-12-24T00:34:15;9.00;99.90
50586;DHT22;36542;51.700;8.846;2022-12-24T00:36:41;9.00;99.90
50586;DHT22;36542;51.700;8.846;2022-12-24T00:39:06;9.00;99.90
50586;DHT22;36542;51.700;8.846;2022-12-24T00:41:32;9.00;99.90
50586;DHT22;36542;51.700;8.846;2022-12-24T00:44:03;9.00;99.90
50586;DHT22;36542;51.700;8.846;2022-12-24T00:46:32;9.00;99.90
50586;DHT22;36542;51.700;8.846;2022-12-24T00:48:58;9.00;99.90
50586;DHT22;36542;51.700;8.846;2022-12-24T00:51:24;9.00;99.90
50586;DHT22;36542;51.700;8.846;2022-12-24T00:53:51;9.00;99.90
50586;DHT22;36542;51.700;8.846;2022-12-24T00:56:17;9.00;99.90
50586;DHT22;36542;51.700;8.846;2022-12-24T00:58:43;9.00;99.90
50586;DHT22;36542;51.700;8.846;2022-12-24T01:01:09;9.00;99.90
50586;DHT22;36542;51.700;8.846;2022-12-24T01:03:34;9.00;99.90
50586;DHT22;36542;51.700;8.846;2022-12-24T01:06:09;9.00;99.90
50586;DHT22;36542;51.700;8.846;2022-12-24T01:08:35;8.90;99.90
50586;DHT22;36542;51.700;8.846;2022-12-24T01:11:02;8.90;99.90
50586;DHT22;36542;51.700;8.846;2022-12-24T01:13:29;8.90;99.90
50586;DHT22;36542;51.700;8.846;2022-12-24T01:15:54;8.90;99.90
50586;DHT22;36542;51.700;8.846;2022-12-24T01:18:20;9.00;99.90
50586;DHT22;36542;51.700;8.846;2022-12-24T01:20:57;8.90;99.90
50586;DHT22;36542;51.700;8.846;2022-12-24T01:23:23;8.90;99.90
50586;DHT22;36542;51.700;8.846;2022-12-24T01:25:49;9.00;99.90
50586;DHT22;36542;51.700;8.846;2022-12-24T01:28:14;9.00;99.90
50586;DHT22;36542;51.700;8.846;2022-12-24T01:30:40;8.90;99.90
50586;DHT22;36542;51.700;8.846;2022-12-24T01:33:06;9.00;99.90
50586;DHT22;36542;51.700;8.846;2022-12-24T01:35:31;9.00;99.90
50586;DHT22;36542;51.700;8.846;2022-12-24T01:37:57;9.00;99.90
50586;DHT22;36542;51.700;8.846;2022-12-24T01:40:25;9.00;99.90
50586;DHT22;36542;51.700;8.846;2022-12-24T01:43:23;9.00;99.90
50586;DHT22;36542;51.700;8.846;2022-12-24T01:45:51;8.90;99.90
50586;DHT22;36542;51.700;8.846;2022-12-24T01:50:59;8.90;99.90
50586;DHT22;36542;51.700;8.846;2022-12-24T01:53:26;8.90;99.90
50586;DHT22;36542;51.700;8.846;2022-12-24T01:55:52;8.90;99.90
50586;DHT22;36542;51.700;8.846;2022-12-24T01:58:20;8.80;99.90
50586;DHT22;36542;51.700;8.846;2022-12-24T02:00:46;8.90;99.90
50586;DHT22;36542;51.700;8.846;2022-12-24T02:03:12;8.90;99.90
50586;DHT22;36542;51.700;8.846;2022-12-24T02:05:48;8.90;99.90
50586;DHT22;36542;51.700;8.846;2022-12-24T02:08:15;8.80;99.90
50586;DHT22;36542;51.700;8.846;2022-12-24T02:10:41;8.80;99.90
50586;DHT22;36542;51.700;8.846;2022-12-24T02:13:06;8.80;99.90
50586;DHT22;36542;51.700;8.846;2022-12-24T05:03:43;8.50;99.90
50586;DHT22;36542;51.700;8.846;2022-12-24T05:06:13;8.40;99.90
50586;DHT22;36542;51.700;8.846;2022-12-24T05:08:39;8.40;99.90
50586;DHT22;36542;51.700;8.846;2022-12-24T05:11:05;8.40;99.90
50586;DHT22;36542;51.700;8.846;2022-12-24T05:13:32;8.30;99.90
50586;DHT22;36542;51.700;8.846;2022-12-24T05:15:57;8.30;99.90
50586;DHT22;36542;51.700;8.846;2022-12-24T05:18:23;8.30;99.90
50586;DHT22;36542;51.700;8.846;2022-12-24T05:20:49;8.20;99.90
50586;DHT22;36542;51.700;8.846;2022-12-24T05:23:16;8.20;99.90
50586;DHT22;36542;51.700;8.846;2022-12-24T05:26:01;8.20;99.90
50586;DHT22;36542;51.700;8.846;2022-12-24T05:28:46;8.10;99.90
50586;DHT22;36542;51.700;8.846;2022-12-24T05:31:11;8.10;99.90
50586;DHT22;36542;51.700;8.846;2022-12-24T05:33:37;8.10;99.90
50586;DHT22;36542;51.700;8.846;2022-12-24T05:36:02;8.10;99.90
50586;DHT22;36542;51.700;8.846;2022-12-24T05:38:28;8.10;99.90
50586;DHT22;36542;51.700;8.846;2022-12-24T05:40:54;8.10;99.90
50586;DHT22;36542;51.700;8.846;2022-12-24T05:43:19;8.10;99.90
50586;DHT22;36542;51.700;8.846;2022-12-24T05:45:44;8.10;99.90
50586;DHT22;36542;51.700;8.846;2022-12-24T05:48:10;8.20;99.90
50586;DHT22;36542;51.700;8.846;2022-12-24T05:50:38;8.20;99.90
50586;DHT22;36542;51.700;8.846;2022-12-24T05:53:04;8.20;99.90
50586;DHT22;36542;51.700;8.846;2022-12-24T05:55:30;8.20;99.90
50586;DHT22;36542;51.700;8.846;2022-12-24T05:57:56;8.20;99.90
50586;DHT22;36542;51.700;8.846;2022-12-24T06:00:21;8.20;99.90
50586;DHT22;36542;51.700;8.846;2022-12-24T06:02:47;8.30;99.90
50586;DHT22;36542;51.700;8.846;2022-12-24T06:05:12;8.30;99.90
50586;DHT22;36542;51.700;8.846;2022-12-24T06:07:38;8.30;99.90
50586;DHT22;36542;51.700;8.846;2022-12-24T06:10:04;8.30;99.90
50586;DHT22;36542;51.700;8.846;2022-12-24T06:12:30;8.30;99.90
50586;DHT22;36542;51.700;8.846;2022-12-24T06:14:55;8.30;99.90
50586;DHT22;36542;51.700;8.846;2022-12-24T06:17:21;8.30;99.90
50586;DHT22;36542;51.700;8.846;2022-12-24T06:19:46;8.30;99.90
50586;DHT22;36542;51.700;8.846;2022-12-24T06:22:12;8.20;99.90
50586;DHT22;36542;51.700;8.846;2022-12-24T06:24:37;8.20;99.90
50586;DHT22;36542;51.700;8.846;2022-12-24T06:27:03;8.10;99.90
50586;DHT22;36542;51.700;8.846;2022-12-24T06:29:28;8.10;99.90
50586;DHT22;36542;51.700;8.846;2022-12-24T06:31:54;8.00;99.90
50586;DHT22;36542;51.700;8.846;2022-12-24T06:34:19;8.00;99.90
50586;DHT22;36542;51.700;8.846;2022-12-24T06:36:44;7.90;99.90
50586;DHT22;36542;51.700;8.846;2022-12-24T06:39:10;8.00;99.90
50586;DHT22;36542;51.700;8.846;2022-12-24T06:41:35;8.00;99.90
50586;DHT22;36542;51.700;8.846;2022-12-24T06:44:01;8.00;99.90
50586;DHT22;36542;51.700;8.846;2022-12-24T06:46:26;8.00;99.90
50586;DHT22;36542;51.700;8.846;2022-12-24T06:48:52;8.00;99.90
50586;DHT22;36542;51.700;8.846;2022-12-24T06:51:19;8.00;99.90
50586;DHT22;36542;51.700;8.846;2022-12-24T06:53:46;8.00;99.90
50586;DHT22;36542;51.700;8.846;2022-12-24T06:56:12;8.00;99.90
50586;DHT22;36542;51.700;8.846;2022-12-24T06:58:39;8.00;99.90
50586;DHT22;36542;51.700;8.846;2022-12-24T07:01:06;8.00;99.90
50586;DHT22;36542;51.700;8.846;2022-12-24T07:03:33;8.00;99.90
50586;DHT22;36542;51.700;8.846;2022-12-24T07:05:59;8.00;99.90
50586;DHT22;36542;51.700;8.846;2022-12-24T07:08:24;8.10;99.90
50586;DHT22;36542;51.700;8.846;2022-12-24T07:10:51;8.10;99.90
50586;DHT22;36542;51.700;8.846;2022-12-24T07:13:17;8.10;99.90
50586;DHT22;36542;51.700;8.846;2022-12-24T07:15:43;8.00;99.90
50586;DHT22;36542;51.700;8.846;2022-12-24T07:18:09;8.00;99.90
50586;DHT22;36542;51.700;8.846;2022-12-24T07:20:35;8.10;99.90
50586;DHT22;36542;51.700;8.846;2022-12-24T07:23:00;8.10;99.90
50586;DHT22;36542;51.700;8.846;2022-12-24T07:25:26;8.10;99.90
50586;DHT22;36542;51.700;8.846;2022-12-24T07:27:51;8.10;99.90
50586;DHT22;36542;51.700;8.846;2022-12-24T07:30:17;8.10;99.90
50586;DHT22;36542;51.700;8.846;2022-12-24T07:32:42;8.10;99.90
50586;DHT22;36542;51.700;8.846;2022-12-24T07:35:08;8.20;99.90
50586;DHT22;36542;51.700;8.846;2022-12-24T07:37:34;8.10;99.90
50586;DHT22;36542;51.700;8.846;2022-12-24T07:39:59;8.20;99.90
50586;DHT22;36542;51.700;8.846;2022-12-24T07:42:25;8.20;99.90
50586;DHT22;36542;51.700;8.846;2022-12-24T07:44:50;8.30;99.90
50586;DHT22;36542;51.700;8.846;2022-12-24T07:47:16;8.30;99.90
50586;DHT22;36542;51.700;8.846;2022-12-24T07:49:41;8.30;99.90
50586;DHT22;36542;51.700;8.846;2022-12-24T07:52:07;8.40;99.90
50586;DHT22;36542;51.700;8.846;2022-12-24T07:54:32;8.40;99.90
50586;DHT22;36542;51.700;8.846;2022-12-24T07:56:58;8.40;99.90
50586;DHT22;36542;51.700;8.846;2022-12-24T07:59:23;8.40;99.90
50586;DHT22;36542;51.700;8.846;2022-12-24T08:01:49;8.40;99.90
50586;DHT22;36542;51.700;8.846;2022-12-24T08:04:14;8.40;99.90
50586;DHT22;36542;51.700;8.846;2022-12-24T08:06:40;8.40;99.90
50586;DHT22;36542;51.700;8.846;2022-12-24T08:09:05;8.40;99.90
50586;DHT22;36542;51.700;8.846;2022-12-24T08:11:31;8.50;99.90
50586;DHT22;36542;51.700;8.846;2022-12-24T08:13:57;8.60;99.90
50586;DHT22;36542;51.700;8.846;2022-12-24T08:16:22;8.60;99.90
50586;DHT22;36542;51.700;8.846;2022-12-24T08:18:48;8.70;99.90
50586;DHT22;36542;51.700;8.846;2022-12-24T08:21:13;8.60;99.90
50586;DHT22;36542;51.700;8.846;2022-12-24T08:23:39;8.70;99.90
50586;DHT22;36542;51.700;8.846;2022-12-24T08:26:09;8.70;99.90
50586;DHT22;36542;51.700;8.846;2022-12-24T08:28:35;8.80;99.90
50586;DHT22;36542;51.700;8.846;2022-12-24T08:31:01;8.90;99.90
50586;DHT22;36542;51.700;8.846;2022-12-24T08:33:26;8.90;99.90
50586;DHT22;36542;51.700;8.846;2022-12-24T08:35:54;8.90;99.90
50586;DHT22;36542;51.700;8.846;2022-12-24T08:38:20;8.90;99.90
50586;DHT22;36542;51.700;8.846;2022-12-24T08:40:46;9.00;99.90
50586;DHT22;36542;51.700;8.846;2022-12-24T08:43:17;9.10;99.90
50586;DHT22;36542;51.700;8.846;2022-12-24T08:45:43;9.10;99.90
50586;DHT22;36542;51.700;8.846;2022-12-24T08:48:09;9.10;99.90
50586;DHT22;36542;51.700;8.846;2022-12-24T08:50:38;9.10;99.90
50586;DHT22;36542;51.700;8.846;2022-12-24T08:53:04;9.10;99.90
50586;DHT22;36542;51.700;8.846;2022-12-24T08:55:29;9.10;99.90
50586;DHT22;36542;51.700;8.846;2022-12-24T08:57:55;9.10;99.90
50586;DHT22;36542;51.700;8.846;2022-12-24T09:00:20;9.10;99.90
50586;DHT22;36542;51.700;8.846;2022-12-24T09:02:46;9.10;99.90
50586;DHT22;36542;51.700;8.846;2022-12-24T09:05:11;9.10;99.90
50586;DHT22;36542;51.700;8.846;2022-12-24T09:07:37;9.10;99.90
50586;DHT22;36542;51.700;8.846;2022-12-24T09:10:02;9.10;99.90
50586;DHT22;36542;51.700;8.846;2022-12-24T09:12:28;9.00;99.90
50586;DHT22;36542;51.700;8.846;2022-12-24T09:14:54;9.00;99.90
50586;DHT22;36542;51.700;8.846;2022-12-24T09:17:20;8.90;99.90
50586;DHT22;36542;51.700;8.846;2022-12-24T09:19:46;8.90;99.90
50586;DHT22;36542;51.700;8.846;2022-12-24T09:22:11;8.80;99.90
50586;DHT22;36542;51.700;8.846;2022-12-24T09:24:37;8.70;99.90
50586;DHT22;36542;51.700;8.846;2022-12-24T09:27:03;8.70;99.90
50586;DHT22;36542;51.700;8.846;2022-12-24T09:29:29;8.70;99.90
50586;DHT22;36542;51.700;8.846;2022-12-24T09:31:55;8.70;99.90
50586;DHT22;36542;51.700;8.846;2022-12-24T09:34:22;8.70;99.90
50586;DHT22;36542;51.700;8.846;2022-12-24T09:36:48;8.70;99.90
50586;DHT22;36542;51.700;8.846;2022-12-24T09:39:13;8.70;99.90
50586;DHT22;36542;51.700;8.846;2022-12-24T09:44:27;8.80;99.90
50586;DHT22;36542;51.700;8.846;2022-12-24T09:46:56;8.90;99.90
50586;DHT22;36542;51.700;8.846;2022-12-24T09:49:29;8.90;99.90
50586;DHT22;36542;51.700;8.846;2022-12-24T09:52:04;8.90;99.90
50586;DHT22;36542;51.700;8.846;2022-12-24T09:54:34;9.00;99.90
50586;DHT22;36542;51.700;8.846;2022-12-24T09:57:05;9.00;99.90
50586;DHT22;36542;51.700;8.846;2022-12-24T09:59:43;9.00;99.90
50586;DHT22;36542;51.700;8.846;2022-12-24T10:02:12;9.10;99.90
50586;DHT22;36542;51.700;8.846;2022-12-24T10:04:38;9.00;99.90
50586;DHT22;36542;51.700;8.846;2022-12-24T10:07:30;9.00;99.90
50586;DHT22;36542;51.700;8.846;2022-12-24T10:10:36;9.00;99.90
50586;DHT22;36542;51.700;8.846;2022-12-24T10:16:23;9.00;99.90
50586;DHT22;36542;51.700;8.846;2022-12-24T10:19:15;9.00;99.90
50586;DHT22;36542;51.700;8.846;2022-12-24T10:21:58;9.00;99.90
50586;DHT22;36542;51.700;8.846;2022-12-24T10:24:42;9.00;99.90
50586;DHT22;36542;51.700;8.846;2022-12-24T10:27:12;9.10;99.90
50586;DHT22;36542;51.700;8.846;2022-12-24T10:29:45;9.20;99.90
50586;DHT22;36542;51.700;8.846;2022-12-24T10:32:21;9.40;99.90
50586;DHT22;36542;51.700;8.846;2022-12-24T10:35:10;9.80;99.90
50586;DHT22;36542;51.700;8.846;2022-12-24T10:37:41;10.30;99.90
50586;DHT22;36542;51.700;8.846;2022-12-24T10:40:15;11.00;99.90
50586;DHT22;36542;51.700;8.846;2022-12-24T10:42:46;11.00;99.90
50586;DHT22;36542;51.700;8.846;2022-12-24T10:45:16;10.80;99.90
50586;DHT22;36542;51.700;8.846;2022-12-24T10:47:44;10.50;99.90
50586;DHT22;36542;51.700;8.846;2022-12-24T10:50:18;10.20;99.90
50586;DHT22;36542;51.700;8.846;2022-12-24T10:52:50;10.00;99.90
50586;DHT22;36542;51.700;8.846;2022-12-24T10:57:46;9.80;99.90
50586;DHT22;36542;51.700;8.846;2022-12-24T11:00:22;9.80;99.90
50586;DHT22;36542;51.700;8.846;2022-12-24T11:03:03;9.70;99.90
50586;DHT22;36542;51.700;8.846;2022-12-24T11:05:34;9.80;99.90
50586;DHT22;36542;51.700;8.846;2022-12-24T11:08:02;9.90;99.90
50586;DHT22;36542;51.700;8.846;2022-12-24T11:10:29;9.90;99.90
50586;DHT22;36542;51.700;8.846;2022-12-24T11:12:55;9.90;99.90
50586;DHT22;36542;51.700;8.846;2022-12-24T11:15:29;9.90;99.90
50586;DHT22;36542;51.700;8.846;2022-12-24T11:18:04;9.90;99.90
50586;DHT22;36542;51.700;8.846;2022-12-24T11:20:37;9.80;99.90
50586;DHT22;36542;51.700;8.846;2022-12-24T11:23:03;9.80;99.90
50586;DHT22;36542;51.700;8.846;2022-12-24T11:25:33;9.80;99.90
50586;DHT22;36542;51.700;8.846;2022-12-24T11:28:30;9.90;99.90
50586;DHT22;36542;51.700;8.846;2022-12-24T11:31:05;9.90;99.90
50586;DHT22;36542;51.700;8.846;2022-12-24T11:33:32;10.00;99.90
50586;DHT22;36542;51.700;8.846;2022-12-24T11:36:12;10.10;99.90
50586;DHT22;36542;51.700;8.846;2022-12-24T11:38:38;10.30;99.90
50586;DHT22;36542;51.700;8.846;2022-12-24T11:41:07;10.30;99.90
50586;DHT22;36542;51.700;8.846;2022-12-24T11:43:37;10.30;99.90
50586;DHT22;36542;51.700;8.846;2022-12-24T11:46:33;10.40;99.90
50586;DHT22;36542;51.700;8.846;2022-12-24T11:51:38;10.50;99.90
50586;DHT22;36542;51.700;8.846;2022-12-24T11:54:16;10.50;99.90
50586;DHT22;36542;51.700;8.846;2022-12-24T11:56:46;10.50;99.90
50586;DHT22;36542;51.700;8.846;2022-12-24T11:59:33;10.40;99.90
50586;DHT22;36542;51.700;8.846;2022-12-24T12:02:12;10.50;99.90
50586;DHT22;36542;51.700;8.846;2022-12-24T12:04:42;10.50;99.90
50586;DHT22;36542;51.700;8.846;2022-12-24T12:07:13;10.50;99.90
50586;DHT22;36542;51.700;8.846;2022-12-24T12:09:58;10.40;99.90
50586;DHT22;36542;51.700;8.846;2022-12-24T12:12:31;10.40;99.90
50586;DHT22;36542;51.700;8.846;2022-12-24T12:15:02;10.30;99.90
50586;DHT22;36542;51.700;8.846;2022-12-24T12:20:49;10.30;99.90
50586;DHT22;36542;51.700;8.846;2022-12-24T12:23:24;10.20;99.90
50586;DHT22;36542;51.700;8.846;2022-12-24T12:25:59;10.10;99.90
50586;DHT22;36542;51.700;8.846;2022-12-24T12:28:40;10.10;99.90
50586;DHT22;36542;51.700;8.846;2022-12-24T12:31:27;10.00;99.90
50586;DHT22;36542;51.700;8.846;2022-12-24T12:34:38;9.90;99.90
50586;DHT22;36542;51.700;8.846;2022-12-24T12:37:02;9.80;99.90
50586;DHT22;36542;51.700;8.846;2022-12-24T12:39:30;9.80;99.90
50586;DHT22;36542;51.700;8.846;2022-12-24T12:55:48;9.70;99.90
50586;DHT22;36542;51.700;8.846;2022-12-24T12:58:16;9.80;99.90
50586;DHT22;36542;51.700;8.846;2022-12-24T13:00:46;9.80;99.90
50586;DHT22;36542;51.700;8.846;2022-12-24T13:14:40;9.70;99.90
50586;DHT22;36542;51.700;8.846;2022-12-24T13:17:41;9.70;99.90
50586;DHT22;36542;51.700;8.846;2022-12-24T13:20:18;9.70;99.90
50586;DHT22;36542;51.700;8.846;2022-12-24T13:22:58;9.60;99.90
50586;DHT22;36542;51.700;8.846;2022-12-24T13:25:36;9.70;99.90
50586;DHT22;36542;51.700;8.846;2022-12-24T13:28:37;9.70;99.90
50586;DHT22;36542;51.700;8.846;2022-12-24T13:34:00;9.80;99.90
50586;DHT22;36542;51.700;8.846;2022-12-24T13:37:02;9.70;99.90
50586;DHT22;36542;51.700;8.846;2022-12-24T13:50:39;9.60;99.90
50586;DHT22;36542;51.700;8.846;2022-12-24T13:53:18;9.60;99.90
50586;DHT22;36542;51.700;8.846;2022-12-24T13:58:24;9.60;99.90
50586;DHT22;36542;51.700;8.846;2022-12-24T14:00:59;9.60;99.90
50586;DHT22;36542;51.700;8.846;2022-12-24T14:03:42;9.70;99.90
50586;DHT22;36542;51.700;8.846;2022-12-24T14:06:11;9.70;99.90
50586;DHT22;36542;51.700;8.846;2022-12-24T14:08:41;9.70;99.90
50586;DHT22;36542;51.700;8.846;2022-12-24T14:11:13;9.70;99.90
50586;DHT22;36542;51.700;8.846;2022-12-24T14:16:50;9.50;99.90
50586;DHT22;36542;51.700;8.846;2022-12-24T14:19:19;9.50;99.90
50586;DHT22;36542;51.700;8.846;2022-12-24T14:24:42;9.30;99.90
50586;DHT22;36542;51.700;8.846;2022-12-24T14:30:22;9.10;99.90
50586;DHT22;36542;51.700;8.846;2022-12-24T14:32:49;9.10;99.90
50586;DHT22;36542;51.700;8.846;2022-12-24T14:35:16;9.00;99.90
50586;DHT22;36542;51.700;8.846;2022-12-24T14:37:55;9.00;99.90
50586;DHT22;36542;51.700;8.846;2022-12-24T14:40:25;9.00;99.90
50586;DHT22;36542;51.700;8.846;2022-12-24T14:45:51;8.80;99.90
50586;DHT22;36542;51.700;8.846;2022-12-24T14:48:30;8.80;99.90
50586;DHT22;36542;51.700;8.846;2022-12-24T14:53:43;8.80;99.90
50586;DHT22;36542;51.700;8.846;2022-12-24T14:56:20;8.70;99.90
50586;DHT22;36542;51.700;8.846;2022-12-24T14:58:47;8.80;99.90
50586;DHT22;36542;51.700;8.846;2022-12-24T15:01:28;8.70;99.90
50586;DHT22;36542;51.700;8.846;2022-12-24T15:06:38;8.60;99.90
50586;DHT22;36542;51.700;8.846;2022-12-24T15:09:05;8.50;99.90
50586;DHT22;36542;51.700;8.846;2022-12-24T15:11:35;8.50;99.90
50586;DHT22;36542;51.700;8.846;2022-12-24T15:14:01;8.40;99.90
50586;DHT22;36542;51.700;8.846;2022-12-24T15:16:31;8.30;99.90
50586;DHT22;36542;51.700;8.846;2022-12-24T15:19:00;8.30;99.90
50586;DHT22;36542;51.700;8.846;2022-12-24T15:21:32;8.40;99.90
50586;DHT22;36542;51.700;8.846;2022-12-24T15:23:58;8.40;99.90
50586;DHT22;36542;51.700;8.846;2022-12-24T15:26:25;8.40;99.90
50586;DHT22;36542;51.700;8.846;2022-12-24T15:28:53;8.40;99.90
50586;DHT22;36542;51.700;8.846;2022-12-24T15:31:22;8.40;99.90
50586;DHT22;36542;51.700;8.846;2022-12-24T15:33:50;8.40;99.90
50586;DHT22;36542;51.700;8.846;2022-12-24T15:36:35;8.40;99.90
50586;DHT22;36542;51.700;8.846;2022-12-24T15:39:07;8.30;99.90
50586;DHT22;36542;51.700;8.846;2022-12-24T15:41:40;8.30;99.90
50586;DHT22;36542;51.700;8.846;2022-12-24T15:44:34;8.10;99.90
50586;DHT22;36542;51.700;8.846;2022-12-24T15:47:02;7.90;99.90
50586;DHT22;36542;51.700;8.846;2022-12-24T15:49:30;7.80;99.90
50586;DHT22;36542;51.700;8.846;2022-12-24T15:52:09;7.80;99.90
50586;DHT22;36542;51.700;8.846;2022-12-24T15:54:36;7.70;99.90
50586;DHT22;36542;51.700;8.846;2022-12-24T15:59:55;7.50;99.90
50586;DHT22;36542;51.700;8.846;2022-12-24T16:02:35;7.60;99.90
50586;DHT22;36542;51.700;8.846;2022-12-24T16:05:30;7.60;99.90
50586;DHT22;36542;51.700;8.846;2022-12-24T16:08:22;7.50;99.90
50586;DHT22;36542;51.700;8.846;2022-12-24T16:13:42;7.30;99.90
50586;DHT22;36542;51.700;8.846;2022-12-24T16:16:11;7.30;99.90
50586;DHT22;36542;51.700;8.846;2022-12-24T16:18:52;7.20;99.90
50586;DHT22;36542;51.700;8.846;2022-12-24T16:21:27;7.30;99.90
50586;DHT22;36542;51.700;8.846;2022-12-24T16:23:55;7.40;99.90
50586;DHT22;36542;51.700;8.846;2022-12-24T16:26:20;7.40;99.90
50586;DHT22;36542;51.700;8.846;2022-12-24T16:28:46;7.40;99.90
50586;DHT22;36542;51.700;8.846;2022-12-24T16:31:28;7.40;99.90
50586;DHT22;36542;51.700;8.846;2022-12-24T16:33:57;7.30;99.90
50586;DHT22;36542;51.700;8.846;2022-12-24T16:36:22;7.20;99.90
50586;DHT22;36542;51.700;8.846;2022-12-24T16:38:48;7.20;99.90
50586;DHT22;36542;51.700;8.846;2022-12-24T16:41:32;7.20;99.90
50586;DHT22;36542;51.700;8.846;2022-12-24T16:44:18;7.10;99.90
50586;DHT22;36542;51.700;8.846;2022-12-24T16:46:43;7.10;99.90
50586;DHT22;36542;51.700;8.846;2022-12-24T16:49:19;7.10;99.90
50586;DHT22;36542;51.700;8.846;2022-12-24T16:51:45;7.20;99.90
50586;DHT22;36542;51.700;8.846;2022-12-24T16:54:11;7.20;99.90
50586;DHT22;36542;51.700;8.846;2022-12-24T16:56:38;7.10;99.90
50586;DHT22;36542;51.700;8.846;2022-12-24T16:59:04;7.10;99.90
50586;DHT22;36542;51.700;8.846;2022-12-24T17:01:29;7.00;99.90
50586;DHT22;36542;51.700;8.846;2022-12-24T17:03:55;7.00;99.90
50586;DHT22;36542;51.700;8.846;2022-12-24T17:06:20;7.00;99.90
50586;DHT22;36542;51.700;8.846;2022-12-24T17:08:47;7.00;99.90
50586;DHT22;36542;51.700;8.846;2022-12-24T17:11:13;6.90;99.90
50586;DHT22;36542;51.700;8.846;2022-12-24T17:13:38;6.90;99.90
50586;DHT22;36542;51.700;8.846;2022-12-24T17:16:04;6.80;99.90
50586;DHT22;36542;51.700;8.846;2022-12-24T17:18:30;6.80;99.90
50586;DHT22;36542;51.700;8.846;2022-12-24T17:20:59;6.70;99.90
50586;DHT22;36542;51.700;8.846;2022-12-24T17:23:26;6.70;99.90
50586;DHT22;36542;51.700;8.846;2022-12-24T17:25:52;6.70;99.90
50586;DHT22;36542;51.700;8.846;2022-12-24T17:28:17;6.70;99.90
50586;DHT22;36542;51.700;8.846;2022-12-24T17:30:42;6.80;99.90
50586;DHT22;36542;51.700;8.846;2022-12-24T17:33:08;6.80;99.90
50586;DHT22;36542;51.700;8.846;2022-12-24T17:35:41;6.90;99.90
50586;DHT22;36542;51.700;8.846;2022-12-24T17:38:07;7.00;99.90
50586;DHT22;36542;51.700;8.846;2022-12-24T17:40:32;7.10;99.90
50586;DHT22;36542;51.700;8.846;2022-12-24T17:42:58;7.10;99.90
50586;DHT22;36542;51.700;8.846;2022-12-24T17:45:23;7.20;99.90
50586;DHT22;36542;51.700;8.846;2022-12-24T17:47:49;7.20;99.90
50586;DHT22;36542;51.700;8.846;2022-12-24T17:50:14;7.20;99.90
50586;DHT22;36542;51.700;8.846;2022-12-24T17:52:40;7.20;99.90
50586;DHT22;36542;51.700;8.846;2022-12-24T17:55:06;7.20;99.90
50586;DHT22;36542;51.700;8.846;2022-12-24T17:57:31;7.20;99.90
50586;DHT22;36542;51.700;8.846;2022-12-24T17:59:57;7.10;99.90
50586;DHT22;36542;51.700;8.846;2022-12-24T18:02:22;7.20;99.90
50586;DHT22;36542;51.700;8.846;2022-12-24T18:04:48;7.20;99.90
50586;DHT22;36542;51.700;8.846;2022-12-24T18:07:14;7.30;99.90
50586;DHT22;36542;51.700;8.846;2022-12-24T18:09:42;7.40;99.90
50586;DHT22;36542;51.700;8.846;2022-12-24T18:12:08;7.40;99.90
50586;DHT22;36542;51.700;8.846;2022-12-24T18:14:33;7.40;99.90
50586;DHT22;36542;51.700;8.846;2022-12-24T18:16:59;7.40;99.90
50586;DHT22;36542;51.700;8.846;2022-12-24T18:19:25;7.40;99.90
50586;DHT22;36542;51.700;8.846;2022-12-24T18:21:50;7.30;99.90
50586;DHT22;36542;51.700;8.846;2022-12-24T18:24:16;7.30;99.90
50586;DHT22;36542;51.700;8.846;2022-12-24T18:26:42;7.20;99.90
50586;DHT22;36542;51.700;8.846;2022-12-24T18:29:08;7.10;99.90
50586;DHT22;36542;51.700;8.846;2022-12-24T18:31:34;7.00;99.90
50586;DHT22;36542;51.700;8.846;2022-12-24T18:34:01;6.90;99.90
50586;DHT22;36542;51.700;8.846;2022-12-24T18:36:27;6.70;99.90
50586;DHT22;36542;51.700;8.846;2022-12-24T18:38:52;6.60;99.90
50586;DHT22;36542;51.700;8.846;2022-12-24T18:41:21;6.60;99.90
50586;DHT22;36542;51.700;8.846;2022-12-24T18:43:47;6.60;99.90
50586;DHT22;36542;51.700;8.846;2022-12-24T18:46:20;6.60;99.90
50586;DHT22;36542;51.700;8.846;2022-12-24T18:48:46;6.60;99.90
50586;DHT22;36542;51.700;8.846;2022-12-24T18:51:12;6.50;99.90
50586;DHT22;36542;51.700;8.846;2022-12-24T18:53:38;6.40;99.90
50586;DHT22;36542;51.700;8.846;2022-12-24T18:56:10;6.50;99.90
50586;DHT22;36542;51.700;8.846;2022-12-24T18:58:36;6.40;99.90
50586;DHT22;36542;51.700;8.846;2022-12-24T19:01:12;6.40;99.90
50586;DHT22;36542;51.700;8.846;2022-12-24T19:03:38;6.30;99.90
50586;DHT22;36542;51.700;8.846;2022-12-24T19:06:03;6.20;99.90
50586;DHT22;36542;51.700;8.846;2022-12-24T19:08:29;6.20;99.90
50586;DHT22;36542;51.700;8.846;2022-12-24T19:10:54;6.10;99.90
50586;DHT22;36542;51.700;8.846;2022-12-24T19:13:20;6.00;99.90
50586;DHT22;36542;51.700;8.846;2022-12-24T19:15:45;6.00;99.90
50586;DHT22;36542;51.700;8.846;2022-12-24T19:18:11;5.90;99.90
50586;DHT22;36542;51.700;8.846;2022-12-24T19:20:38;5.80;99.90
50586;DHT22;36542;51.700;8.846;2022-12-24T19:23:04;5.70;99.90
50586;DHT22;36542;51.700;8.846;2022-12-24T19:25:29;5.90;99.90
50586;DHT22;36542;51.700;8.846;2022-12-24T19:27:55;5.90;99.90
50586;DHT22;36542;51.700;8.846;2022-12-24T19:30:20;6.00;99.90
50586;DHT22;36542;51.700;8.846;2022-12-24T19:32:46;5.90;99.90
50586;DHT22;36542;51.700;8.846;2022-12-24T19:35:11;6.00;99.90
50586;DHT22;36542;51.700;8.846;2022-12-24T19:37:37;6.10;99.90
50586;DHT22;36542;51.700;8.846;2022-12-24T19:40:02;6.20;99.90
50586;DHT22;36542;51.700;8.846;2022-12-24T19:42:29;6.10;99.90
50586;DHT22;36542;51.700;8.846;2022-12-24T19:44:55;6.00;99.90
50586;DHT22;36542;51.700;8.846;2022-12-24T19:47:21;5.90;99.90
50586;DHT22;36542;51.700;8.846;2022-12-24T19:49:46;5.80;99.90
50586;DHT22;36542;51.700;8.846;2022-12-24T19:52:12;5.70;99.90
50586;DHT22;36542;51.700;8.846;2022-12-24T19:54:37;5.70;99.90
50586;DHT22;36542;51.700;8.846;2022-12-24T19:57:03;5.70;99.90
50586;DHT22;36542;51.700;8.846;2022-12-24T19:59:28;5.80;99.90
50586;DHT22;36542;51.700;8.846;2022-12-24T20:01:53;5.70;99.90
50586;DHT22;36542;51.700;8.846;2022-12-24T20:04:20;5.90;99.90
50586;DHT22;36542;51.700;8.846;2022-12-24T20:06:46;6.00;99.90